sensor_id;sensor_type;location;lat;lon;timestamp;pressure;altitude;pressure_sealevel;temperature;humidity
9538;BME280;4807;48.024;11.726;2023-04-05T00:02:40;95364.06;;;-4.01;75.25
9538;BME280;4807;48.024;11.726;2023-04-05T00:05:48;95361.78;;;-4.06;74.54
9538;BME280;4807;48.024;11.726;2023-04-05T00:08:57;95359.72;;;-4.13;74.93
9538;BME280;4807;48.024;11.726;2023-04-05T00:12:06;95355.63;;;-4.17;74.59
9538;BME280;4807;48.024;11.726;2023-04-05T00:15:17;95354.28;;;-4.23;75.35
9538;BME280;4807;48.024;11.726;2023-04-05T00:18:27;95348.66;;;-4.30;75.23
9538;BME280;4807;48.024;11.726;2023-04-05T00:21:42;95348.44;;;-4.27;75.64
9538;BME280;4807;48.024;11.726;2023-04-05T00:24:50;95344.91;;;-4.26;74.85
9538;BME280;4807;48.024;11.726;2023-04-05T00:28:00;95346.25;;;-4.33;75.21
9538;BME280;4807;48.024;11.726;2023-04-05T00:31:10;95339.91;;;-4.41;76.04
9538;BME280;4807;48.024;11.726;2023-04-05T00:34:18;95345.00;;;-4.40;75.18
9538;BME280;4807;48.024;11.726;2023-04-05T00:37:27;95338.88;;;-4.39;75.15
9538;BME280;4807;48.024;11.726;2023-04-05T00:40:35;95328.66;;;-4.42;75.34
9538;BME280;4807;48.024;11.726;2023-04-05T00:43:44;95334.28;;;-4.48;75.95
9538;BME280;4807;48.024;11.726;2023-04-05T00:46:54;95336.56;;;-4.43;76.42
9538;BME280;4807;48.024;11.726;2023-04-05T00:50:05;95330.53;;;-4.44;75.61
9538;BME280;4807;48.024;11.726;2023-04-05T00:53:14;95334.88;;;-4.44;76.08
9538;BME280;4807;48.024;11.726;2023-04-05T00:56:23;95328.97;;;-4.46;76.45
9538;BME280;4807;48.024;11.726;2023-04-05T00:59:32;95335.06;;;-4.60;76.33
9538;BME280;4807;48.024;11.726;2023-04-05T01:02:47;95325.75;;;-4.50;76.60
9538;BME280;4807;48.024;11.726;2023-04-05T01:06:11;95325.22;;;-4.55;76.90
9538;BME280;4807;48.024;11.726;2023-04-05T01:09:36;95317.09;;;-4.63;77.03
9538;BME280;4807;48.024;11.726;2023-04-05T01:12:50;95321.13;;;-4.59;76.72
9538;BME280;4807;48.024;11.726;2023-04-05T01:15:59;95319.47;;;-4.60;76.46
9538;BME280;4807;48.024;11.726;2023-04-05T01:19:09;95310.34;;;-4.53;75.95
9538;BME280;4807;48.024;11.726;2023-04-05T01:23:01;95316.16;;;-4.62;76.42
9538;BME280;4807;48.024;11.726;2023-04-05T01:26:45;95302.84;;;-4.70;76.44
9538;BME280;4807;48.024;11.726;2023-04-05T01:30:03;95312.81;;;-4.64;76.85
9538;BME280;4807;48.024;11.726;2023-04-05T01:33:24;95303.44;;;-4.79;77.50
9538;BME280;4807;48.024;11.726;2023-04-05T01:36:44;95300.78;;;-4.65;76.54
9538;BME280;4807;48.024;11.726;2023-04-05T01:39:57;95293.38;;;-4.71;76.32
9538;BME280;4807;48.024;11.726;2023-04-05T01:43:12;95283.69;;;-4.69;77.20
9538;BME280;4807;48.024;11.726;2023-04-05T01:46:22;95278.72;;;-4.72;76.40
9538;BME280;4807;48.024;11.726;2023-04-05T01:49:30;95287.63;;;-4.76;77.37
9538;BME280;4807;48.024;11.726;2023-04-05T01:52:39;95282.44;;;-4.76;77.08
9538;BME280;4807;48.024;11.726;2023-04-05T01:55:48;95278.31;;;-4.79;76.74
9538;BME280;4807;48.024;11.726;2023-04-05T01:58:56;95278.84;;;-5.01;77.00
9538;BME280;4807;48.024;11.726;2023-04-05T02:02:06;95279.59;;;-4.98;77.40
9538;BME280;4807;48.024;11.726;2023-04-05T02:05:16;95270.69;;;-4.94;77.10
9538;BME280;4807;48.024;11.726;2023-04-05T02:08:24;95265.28;;;-4.91;77.35
9538;BME280;4807;48.024;11.726;2023-04-05T02:11:33;95264.53;;;-4.93;77.43
9538;BME280;4807;48.024;11.726;2023-04-05T02:14:41;95262.47;;;-4.88;76.91
9538;BME280;4807;48.024;11.726;2023-04-05T02:17:51;95269.03;;;-4.83;77.02
9538;BME280;4807;48.024;11.726;2023-04-05T02:21:02;95259.56;;;-4.84;76.51
9538;BME280;4807;48.024;11.726;2023-04-05T02:24:10;95258.41;;;-4.92;77.46
9538;BME280;4807;48.024;11.726;2023-04-05T02:27:19;95258.78;;;-5.11;77.75
9538;BME280;4807;48.024;11.726;2023-04-05T02:30:27;95249.66;;;-5.04;77.04
9538;BME280;4807;48.024;11.726;2023-04-05T02:33:37;95250.50;;;-5.04;77.16
9538;BME280;4807;48.024;11.726;2023-04-05T02:36:45;95257.66;;;-5.07;77.38
9538;BME280;4807;48.024;11.726;2023-04-05T02:39:54;95256.19;;;-5.11;77.12
9538;BME280;4807;48.024;11.726;2023-04-05T02:43:02;95248.28;;;-5.10;77.60
9538;BME280;4807;48.024;11.726;2023-04-05T02:46:10;95246.34;;;-5.33;78.04
9538;BME280;4807;48.024;11.726;2023-04-05T02:49:23;95249.88;;;-5.34;78.23
9538;BME280;4807;48.024;11.726;2023-04-05T02:52:33;95240.81;;;-5.14;77.43
9538;BME280;4807;48.024;11.726;2023-04-05T02:55:51;95242.06;;;-5.07;77.93
9538;BME280;4807;48.024;11.726;2023-04-05T02:59:00;95246.84;;;-5.14;77.16
9538;BME280;4807;48.024;11.726;2023-04-05T03:02:10;95241.47;;;-5.11;76.98
9538;BME280;4807;48.024;11.726;2023-04-05T03:05:19;95244.09;;;-5.25;77.80
9538;BME280;4807;48.024;11.726;2023-04-05T03:08:31;95235.19;;;-5.21;77.85
9538;BME280;4807;48.024;11.726;2023-04-05T03:11:42;95239.47;;;-5.34;78.33
9538;BME280;4807;48.024;11.726;2023-04-05T03:14:52;95241.06;;;-5.31;78.07
9538;BME280;4807;48.024;11.726;2023-04-05T03:18:03;95235.59;;;-5.27;77.71
9538;BME280;4807;48.024;11.726;2023-04-05T03:21:13;95234.78;;;-5.15;77.33
9538;BME280;4807;48.024;11.726;2023-04-05T03:24:34;95240.09;;;-5.43;78.51
9538;BME280;4807;48.024;11.726;2023-04-05T03:27:45;95241.38;;;-5.36;78.02
9538;BME280;4807;48.024;11.726;2023-04-05T03:30:57;95230.16;;;-5.36;78.13
9538;BME280;4807;48.024;11.726;2023-04-05T03:34:06;95231.59;;;-5.32;77.77
9538;BME280;4807;48.024;11.726;2023-04-05T03:37:24;95239.34;;;-5.45;78.59
9538;BME280;4807;48.024;11.726;2023-04-05T03:40:45;95234.91;;;-5.43;77.99
9538;BME280;4807;48.024;11.726;2023-04-05T03:43:53;95233.25;;;-5.44;78.60
9538;BME280;4807;48.024;11.726;2023-04-05T03:47:03;95235.66;;;-5.55;79.04
9538;BME280;4807;48.024;11.726;2023-04-05T03:50:11;95236.41;;;-5.53;79.04
9538;BME280;4807;48.024;11.726;2023-04-05T03:53:21;95229.91;;;-5.46;78.31
9538;BME280;4807;48.024;11.726;2023-04-05T03:56:33;95228.16;;;-5.46;78.29
9538;BME280;4807;48.024;11.726;2023-04-05T03:59:50;95227.13;;;-5.43;78.78
9538;BME280;4807;48.024;11.726;2023-04-05T04:02:59;95230.44;;;-5.41;79.04
9538;BME280;4807;48.024;11.726;2023-04-05T04:06:08;95227.84;;;-5.41;78.66
9538;BME280;4807;48.024;11.726;2023-04-05T04:09:18;95228.19;;;-5.33;77.79
9538;BME280;4807;48.024;11.726;2023-04-05T04:12:29;95235.44;;;-5.38;78.20
9538;BME280;4807;48.024;11.726;2023-04-05T04:15:39;95231.47;;;-5.44;78.47
9538;BME280;4807;48.024;11.726;2023-04-05T04:19:12;95227.75;;;-5.40;78.60
9538;BME280;4807;48.024;11.726;2023-04-05T04:22:47;95225.53;;;-5.46;78.72
9538;BME280;4807;48.024;11.726;2023-04-05T04:26:29;95222.41;;;-5.51;78.28
9538;BME280;4807;48.024;11.726;2023-04-05T04:29:54;95220.94;;;-5.55;78.99
9538;BME280;4807;48.024;11.726;2023-04-05T04:33:07;95224.56;;;-5.57;78.91
9538;BME280;4807;48.024;11.726;2023-04-05T04:36:17;95227.16;;;-5.57;79.24
9538;BME280;4807;48.024;11.726;2023-04-05T04:40:14;95224.47;;;-5.56;78.89
9538;BME280;4807;48.024;11.726;2023-04-05T04:43:45;95222.34;;;-5.63;78.96
9538;BME280;4807;48.024;11.726;2023-04-05T04:47:12;95223.00;;;-5.60;78.60
9538;BME280;4807;48.024;11.726;2023-04-05T04:50:47;95230.13;;;-5.63;79.20
9538;BME280;4807;48.024;11.726;2023-04-05T04:53:56;95226.44;;;-5.59;79.45
9538;BME280;4807;48.024;11.726;2023-04-05T04:57:04;95230.50;;;-5.55;79.18
9538;BME280;4807;48.024;11.726;2023-04-05T05:00:14;95233.59;;;-5.50;79.29
9538;BME280;4807;48.024;11.726;2023-04-05T05:03:23;95234.25;;;-5.47;78.62
9538;BME280;4807;48.024;11.726;2023-04-05T05:06:32;95228.91;;;-5.31;78.63
9538;BME280;4807;48.024;11.726;2023-04-05T05:09:40;95231.59;;;-5.32;78.37
9538;BME280;4807;48.024;11.726;2023-04-05T05:12:48;95220.13;;;-5.28;78.63
9538;BME280;4807;48.024;11.726;2023-04-05T05:15:59;95214.94;;;-5.16;78.41
9538;BME280;4807;48.024;11.726;2023-04-05T05:19:08;95214.22;;;-5.18;78.32
9538;BME280;4807;48.024;11.726;2023-04-05T05:22:22;95226.50;;;-5.07;77.66
9538;BME280;4807;48.024;11.726;2023-04-05T05:25:30;95223.41;;;-5.00;78.01
9538;BME280;4807;48.024;11.726;2023-04-05T05:28:39;95225.19;;;-4.87;77.55
9538;BME280;4807;48.024;11.726;2023-04-05T05:31:48;95221.78;;;-4.75;77.15
9538;BME280;4807;48.024;11.726;2023-04-05T05:34:57;95224.09;;;-4.58;76.82
9538;BME280;4807;48.024;11.726;2023-04-05T05:38:05;95220.44;;;-4.43;76.25
9538;BME280;4807;48.024;11.726;2023-04-05T05:41:18;95219.09;;;-4.23;75.35
9538;BME280;4807;48.024;11.726;2023-04-05T05:44:28;95222.81;;;-4.02;75.09
9538;BME280;4807;48.024;11.726;2023-04-05T05:47:37;95226.97;;;-3.99;75.48
9538;BME280;4807;48.024;11.726;2023-04-05T05:50:46;95240.47;;;-3.81;75.31
9538;BME280;4807;48.024;11.726;2023-04-05T05:53:55;95229.56;;;-3.63;74.33
9538;BME280;4807;48.024;11.726;2023-04-05T05:57:03;95236.19;;;-3.46;74.65
9538;BME280;4807;48.024;11.726;2023-04-05T06:00:13;95242.75;;;-2.93;74.21
9538;BME280;4807;48.024;11.726;2023-04-05T06:03:23;95246.00;;;-2.10;71.46
9538;BME280;4807;48.024;11.726;2023-04-05T06:06:32;95243.56;;;-1.12;69.13
9538;BME280;4807;48.024;11.726;2023-04-05T06:09:44;95238.72;;;-0.53;65.10
9538;BME280;4807;48.024;11.726;2023-04-05T06:12:53;95225.97;;;0.35;62.62
9538;BME280;4807;48.024;11.726;2023-04-05T06:16:02;95236.22;;;1.94;58.79
9538;BME280;4807;48.024;11.726;2023-04-05T06:19:11;95226.72;;;3.65;53.71
9538;BME280;4807;48.024;11.726;2023-04-05T06:22:20;95228.41;;;4.17;51.03
9538;BME280;4807;48.024;11.726;2023-04-05T06:25:29;95239.72;;;2.86;53.15
9538;BME280;4807;48.024;11.726;2023-04-05T06:28:37;95228.38;;;3.30;52.88
9538;BME280;4807;48.024;11.726;2023-04-05T06:31:46;95232.19;;;3.18;52.71
9538;BME280;4807;48.024;11.726;2023-04-05T06:34:55;95230.00;;;1.95;56.53
9538;BME280;4807;48.024;11.726;2023-04-05T06:38:04;95239.28;;;1.41;59.00
9538;BME280;4807;48.024;11.726;2023-04-05T06:41:12;95232.09;;;1.24;60.63
9538;BME280;4807;48.024;11.726;2023-04-05T06:44:21;95237.22;;;2.20;57.89
9538;BME280;4807;48.024;11.726;2023-04-05T06:47:32;95223.13;;;3.30;55.54
9538;BME280;4807;48.024;11.726;2023-04-05T06:50:42;95220.94;;;5.07;50.73
9538;BME280;4807;48.024;11.726;2023-04-05T06:53:51;95217.88;;;5.52;48.84
9538;BME280;4807;48.024;11.726;2023-04-05T06:57:02;95221.53;;;6.40;46.14
9538;BME280;4807;48.024;11.726;2023-04-05T07:00:13;95215.91;;;7.52;43.86
9538;BME280;4807;48.024;11.726;2023-04-05T07:03:23;95210.44;;;7.76;41.11
9538;BME280;4807;48.024;11.726;2023-04-05T07:06:33;95213.31;;;7.89;41.66
9538;BME280;4807;48.024;11.726;2023-04-05T07:09:44;95211.56;;;8.19;41.24
9538;BME280;4807;48.024;11.726;2023-04-05T07:12:54;95206.91;;;8.73;39.74
9538;BME280;4807;48.024;11.726;2023-04-05T07:16:03;95207.72;;;8.22;40.09
9538;BME280;4807;48.024;11.726;2023-04-05T07:19:11;95206.63;;;8.68;40.11
9538;BME280;4807;48.024;11.726;2023-04-05T07:22:21;95210.38;;;8.22;39.05
9538;BME280;4807;48.024;11.726;2023-04-05T07:25:29;95201.47;;;8.52;38.12
9538;BME280;4807;48.024;11.726;2023-04-05T07:28:38;95200.59;;;8.74;37.43
9538;BME280;4807;48.024;11.726;2023-04-05T07:31:46;95211.19;;;9.04;36.17
9538;BME280;4807;48.024;11.726;2023-04-05T07:34:54;95198.38;;;8.63;37.45
9538;BME280;4807;48.024;11.726;2023-04-05T07:38:04;95201.91;;;8.03;37.74
9538;BME280;4807;48.024;11.726;2023-04-05T07:41:12;95209.00;;;8.63;38.11
9538;BME280;4807;48.024;11.726;2023-04-05T07:44:22;95214.56;;;8.39;38.59
9538;BME280;4807;48.024;11.726;2023-04-05T07:47:32;95220.41;;;6.02;41.63
9538;BME280;4807;48.024;11.726;2023-04-05T07:50:41;95233.59;;;6.18;43.05
9538;BME280;4807;48.024;11.726;2023-04-05T07:53:55;95223.34;;;5.50;44.86
9538;BME280;4807;48.024;11.726;2023-04-05T07:57:05;95227.31;;;4.54;46.33
9538;BME280;4807;48.024;11.726;2023-04-05T08:00:15;95234.91;;;4.99;47.11
9538;BME280;4807;48.024;11.726;2023-04-05T08:03:23;95229.94;;;5.62;44.63
9538;BME280;4807;48.024;11.726;2023-04-05T08:06:32;95236.22;;;5.69;43.16
9538;BME280;4807;48.024;11.726;2023-04-05T08:09:42;95228.88;;;5.15;45.28
9538;BME280;4807;48.024;11.726;2023-04-05T08:12:50;95235.06;;;4.97;45.47
9538;BME280;4807;48.024;11.726;2023-04-05T08:15:59;95233.63;;;4.61;44.91
9538;BME280;4807;48.024;11.726;2023-04-05T08:19:09;95240.13;;;4.49;45.08
9538;BME280;4807;48.024;11.726;2023-04-05T08:22:20;95231.44;;;4.98;44.38
9538;BME280;4807;48.024;11.726;2023-04-05T08:25:30;95238.75;;;4.37;44.59
9538;BME280;4807;48.024;11.726;2023-04-05T08:28:39;95236.19;;;4.19;44.96
9538;BME280;4807;48.024;11.726;2023-04-05T08:31:47;95231.41;;;4.22;45.53
9538;BME280;4807;48.024;11.726;2023-04-05T08:34:55;95230.03;;;4.10;44.37
9538;BME280;4807;48.024;11.726;2023-04-05T08:38:05;95230.47;;;4.32;45.08
9538;BME280;4807;48.024;11.726;2023-04-05T08:41:18;95226.78;;;4.84;43.69
9538;BME280;4807;48.024;11.726;2023-04-05T08:44:29;95232.91;;;5.43;42.04
9538;BME280;4807;48.024;11.726;2023-04-05T08:47:39;95228.00;;;6.05;40.79
9538;BME280;4807;48.024;11.726;2023-04-05T08:50:49;95231.56;;;6.53;38.84
9538;BME280;4807;48.024;11.726;2023-04-05T08:53:59;95225.00;;;6.40;38.42
9538;BME280;4807;48.024;11.726;2023-04-05T08:57:10;95230.06;;;7.05;39.00
9538;BME280;4807;48.024;11.726;2023-04-05T09:00:19;95229.88;;;6.68;37.27
9538;BME280;4807;48.024;11.726;2023-04-05T09:03:34;95230.88;;;6.59;39.03
9538;BME280;4807;48.024;11.726;2023-04-05T09:06:44;95228.06;;;7.07;37.17
9538;BME280;4807;48.024;11.726;2023-04-05T09:09:54;95223.22;;;6.80;38.62
9538;BME280;4807;48.024;11.726;2023-04-05T09:13:06;95221.97;;;6.51;38.48
9538;BME280;4807;48.024;11.726;2023-04-05T09:16:19;95224.38;;;7.16;36.51
9538;BME280;4807;48.024;11.726;2023-04-05T09:19:27;95232.56;;;6.99;35.43
9538;BME280;4807;48.024;11.726;2023-04-05T09:22:43;95238.53;;;6.37;36.91
9538;BME280;4807;48.024;11.726;2023-04-05T09:25:52;95231.59;;;6.44;36.00
9538;BME280;4807;48.024;11.726;2023-04-05T09:29:01;95232.97;;;6.16;36.61
9538;BME280;4807;48.024;11.726;2023-04-05T09:32:11;95235.06;;;6.45;37.21
9538;BME280;4807;48.024;11.726;2023-04-05T09:35:21;95220.31;;;6.98;36.32
9538;BME280;4807;48.024;11.726;2023-04-05T09:38:42;95226.63;;;6.33;35.74
9538;BME280;4807;48.024;11.726;2023-04-05T09:42:05;95225.84;;;6.08;37.79
9538;BME280;4807;48.024;11.726;2023-04-05T09:45:17;95220.72;;;5.58;38.09
9538;BME280;4807;48.024;11.726;2023-04-05T09:48:45;95223.88;;;6.02;38.73
9538;BME280;4807;48.024;11.726;2023-04-05T09:51:55;95228.28;;;6.34;37.90
9538;BME280;4807;48.024;11.726;2023-04-05T09:55:05;95220.66;;;6.56;38.01
9538;BME280;4807;48.024;11.726;2023-04-05T09:58:19;95222.56;;;5.98;38.86
9538;BME280;4807;48.024;11.726;2023-04-05T10:01:31;95230.44;;;6.39;38.84
9538;BME280;4807;48.024;11.726;2023-04-05T10:04:41;95227.97;;;6.29;38.76
9538;BME280;4807;48.024;11.726;2023-04-05T10:07:49;95220.25;;;6.03;39.73
9538;BME280;4807;48.024;11.726;2023-04-05T10:11:00;95223.84;;;6.27;38.31
9538;BME280;4807;48.024;11.726;2023-04-05T10:14:09;95220.31;;;6.50;43.88
9538;BME280;4807;48.024;11.726;2023-04-05T10:17:23;95215.97;;;6.66;38.64
9538;BME280;4807;48.024;11.726;2023-04-05T10:20:39;95210.84;;;7.11;38.91
9538;BME280;4807;48.024;11.726;2023-04-05T10:24:00;95207.78;;;6.92;35.84
9538;BME280;4807;48.024;11.726;2023-04-05T10:27:21;95201.13;;;7.35;37.15
9538;BME280;4807;48.024;11.726;2023-04-05T10:30:37;95200.47;;;8.01;36.79
9538;BME280;4807;48.024;11.726;2023-04-05T10:34:03;95197.72;;;7.94;33.95
9538;BME280;4807;48.024;11.726;2023-04-05T10:37:23;95195.81;;;8.40;36.72
9538;BME280;4807;48.024;11.726;2023-04-05T10:40:36;95197.72;;;7.94;33.88
9538;BME280;4807;48.024;11.726;2023-04-05T10:43:45;95191.25;;;8.12;33.77
9538;BME280;4807;48.024;11.726;2023-04-05T10:46:56;95187.50;;;8.58;34.25
9538;BME280;4807;48.024;11.726;2023-04-05T10:50:11;95187.38;;;8.52;34.58
9538;BME280;4807;48.024;11.726;2023-04-05T10:53:24;95192.25;;;8.33;33.66
9538;BME280;4807;48.024;11.726;2023-04-05T10:56:33;95200.25;;;7.11;35.10
9538;BME280;4807;48.024;11.726;2023-04-05T10:59:44;95187.44;;;6.45;37.12
9538;BME280;4807;48.024;11.726;2023-04-05T11:02:53;95188.47;;;6.36;38.40
9538;BME280;4807;48.024;11.726;2023-04-05T11:06:23;95191.25;;;6.42;38.24
9538;BME280;4807;48.024;11.726;2023-04-05T11:09:33;95184.31;;;6.41;36.82
9538;BME280;4807;48.024;11.726;2023-04-05T11:13:05;95177.69;;;6.45;37.52
9538;BME280;4807;48.024;11.726;2023-04-05T11:16:14;95181.91;;;6.71;37.50
9538;BME280;4807;48.024;11.726;2023-04-05T11:19:49;95171.47;;;7.08;36.39
9538;BME280;4807;48.024;11.726;2023-04-05T11:23:00;95169.94;;;7.45;37.10
9538;BME280;4807;48.024;11.726;2023-04-05T11:26:09;95167.56;;;7.50;35.63
9538;BME280;4807;48.024;11.726;2023-04-05T11:29:19;95161.34;;;7.43;35.76
9538;BME280;4807;48.024;11.726;2023-04-05T11:32:46;95158.84;;;7.64;36.17
9538;BME280;4807;48.024;11.726;2023-04-05T11:36:00;95154.84;;;7.68;35.47
9538;BME280;4807;48.024;11.726;2023-04-05T11:39:29;95165.75;;;7.27;35.09
9538;BME280;4807;48.024;11.726;2023-04-05T11:42:38;95161.69;;;6.78;35.16
9538;BME280;4807;48.024;11.726;2023-04-05T11:45:47;95152.31;;;6.67;33.91
9538;BME280;4807;48.024;11.726;2023-04-05T11:48:56;95152.31;;;6.98;35.55
9538;BME280;4807;48.024;11.726;2023-04-05T11:52:13;95157.31;;;7.47;34.69
9538;BME280;4807;48.024;11.726;2023-04-05T11:55:27;95149.53;;;8.05;34.11
9538;BME280;4807;48.024;11.726;2023-04-05T11:58:36;95143.66;;;8.33;32.82
9538;BME280;4807;48.024;11.726;2023-04-05T12:01:44;95146.88;;;8.43;36.41
9538;BME280;4807;48.024;11.726;2023-04-05T12:04:53;95142.19;;;8.45;32.87
9538;BME280;4807;48.024;11.726;2023-04-05T12:08:04;95147.88;;;6.60;35.64
9538;BME280;4807;48.024;11.726;2023-04-05T12:11:15;95138.81;;;6.54;36.08
9538;BME280;4807;48.024;11.726;2023-04-05T12:14:25;95142.09;;;6.95;35.49
9538;BME280;4807;48.024;11.726;2023-04-05T12:17:43;95144.66;;;7.11;33.95
9538;BME280;4807;48.024;11.726;2023-04-05T12:20:52;95148.50;;;7.01;34.49
9538;BME280;4807;48.024;11.726;2023-04-05T12:24:01;95140.94;;;6.59;34.17
9538;BME280;4807;48.024;11.726;2023-04-05T12:27:11;95126.50;;;6.69;36.53
9538;BME280;4807;48.024;11.726;2023-04-05T12:30:21;95129.69;;;6.65;35.48
9538;BME280;4807;48.024;11.726;2023-04-05T12:33:32;95134.16;;;6.95;33.78
9538;BME280;4807;48.024;11.726;2023-04-05T12:36:44;95133.91;;;7.13;33.64
9538;BME280;4807;48.024;11.726;2023-04-05T12:39:54;95130.19;;;6.91;31.97
9538;BME280;4807;48.024;11.726;2023-04-05T12:43:05;95119.09;;;6.65;33.69
9538;BME280;4807;48.024;11.726;2023-04-05T12:46:16;95125.28;;;7.11;32.68
9538;BME280;4807;48.024;11.726;2023-04-05T12:49:27;95117.84;;;6.83;33.66
9538;BME280;4807;48.024;11.726;2023-04-05T12:52:35;95120.34;;;7.31;34.49
9538;BME280;4807;48.024;11.726;2023-04-05T12:55:48;95112.28;;;6.70;34.33
9538;BME280;4807;48.024;11.726;2023-04-05T12:58:59;95107.81;;;7.02;37.56
9538;BME280;4807;48.024;11.726;2023-04-05T13:02:09;95113.59;;;7.51;36.12
9538;BME280;4807;48.024;11.726;2023-04-05T13:05:18;95109.69;;;7.61;36.96
9538;BME280;4807;48.024;11.726;2023-04-05T13:08:26;95098.22;;;7.46;35.67
9538;BME280;4807;48.024;11.726;2023-04-05T13:11:35;95107.28;;;7.52;35.54
9538;BME280;4807;48.024;11.726;2023-04-05T13:14:45;95106.81;;;7.48;33.94
9538;BME280;4807;48.024;11.726;2023-04-05T13:17:53;95105.94;;;7.71;36.73
9538;BME280;4807;48.024;11.726;2023-04-05T13:21:02;95101.63;;;7.55;34.42
9538;BME280;4807;48.024;11.726;2023-04-05T13:24:13;95100.00;;;7.54;34.73
9538;BME280;4807;48.024;11.726;2023-04-05T13:27:22;95096.59;;;7.45;34.58
9538;BME280;4807;48.024;11.726;2023-04-05T13:30:32;95096.44;;;6.93;36.05
9538;BME280;4807;48.024;11.726;2023-04-05T13:33:40;95096.66;;;7.37;35.64
9538;BME280;4807;48.024;11.726;2023-04-05T13:36:48;95090.75;;;8.17;32.97
9538;BME280;4807;48.024;11.726;2023-04-05T13:39:57;95088.88;;;7.73;32.74
9538;BME280;4807;48.024;11.726;2023-04-05T13:43:06;95087.59;;;7.69;36.22
9538;BME280;4807;48.024;11.726;2023-04-05T13:46:16;95087.84;;;8.26;34.50
9538;BME280;4807;48.024;11.726;2023-04-05T13:49:24;95080.59;;;7.91;35.15
9538;BME280;4807;48.024;11.726;2023-04-05T13:52:33;95077.84;;;7.99;36.74
9538;BME280;4807;48.024;11.726;2023-04-05T13:55:41;95081.16;;;8.01;37.05
9538;BME280;4807;48.024;11.726;2023-04-05T13:58:50;95079.75;;;7.90;37.35
9538;BME280;4807;48.024;11.726;2023-04-05T14:01:59;95083.44;;;7.52;35.41
9538;BME280;4807;48.024;11.726;2023-04-05T14:05:09;95077.97;;;7.31;35.44
9538;BME280;4807;48.024;11.726;2023-04-05T14:08:21;95077.22;;;7.45;35.52
9538;BME280;4807;48.024;11.726;2023-04-05T14:11:33;95080.34;;;7.25;34.58
9538;BME280;4807;48.024;11.726;2023-04-05T14:14:41;95069.75;;;7.25;35.58
9538;BME280;4807;48.024;11.726;2023-04-05T14:17:51;95064.75;;;7.68;36.50
9538;BME280;4807;48.024;11.726;2023-04-05T14:21:00;95064.38;;;7.34;35.61
9538;BME280;4807;48.024;11.726;2023-04-05T14:24:08;95071.56;;;6.79;37.35
9538;BME280;4807;48.024;11.726;2023-04-05T14:27:16;95066.91;;;7.50;36.14
9538;BME280;4807;48.024;11.726;2023-04-05T14:30:28;95067.69;;;7.88;34.97
9538;BME280;4807;48.024;11.726;2023-04-05T14:33:38;95058.84;;;8.10;35.80
9538;BME280;4807;48.024;11.726;2023-04-05T14:36:46;95066.72;;;8.18;36.14
9538;BME280;4807;48.024;11.726;2023-04-05T14:39:55;95064.69;;;8.05;38.35
9538;BME280;4807;48.024;11.726;2023-04-05T14:43:03;95059.28;;;8.14;38.16
9538;BME280;4807;48.024;11.726;2023-04-05T14:46:12;95061.69;;;8.09;38.12
9538;BME280;4807;48.024;11.726;2023-04-05T14:49:21;95059.66;;;7.96;35.04
9538;BME280;4807;48.024;11.726;2023-04-05T14:52:30;95060.13;;;7.47;37.28
9538;BME280;4807;48.024;11.726;2023-04-05T14:55:38;95060.88;;;7.18;35.46
9538;BME280;4807;48.024;11.726;2023-04-05T14:58:46;95057.16;;;7.27;37.65
9538;BME280;4807;48.024;11.726;2023-04-05T15:01:55;95062.22;;;7.14;37.47
9538;BME280;4807;48.024;11.726;2023-04-05T15:05:06;95058.81;;;7.28;37.92
9538;BME280;4807;48.024;11.726;2023-04-05T15:08:14;95060.81;;;7.26;37.57
9538;BME280;4807;48.024;11.726;2023-04-05T15:11:22;95058.44;;;7.32;35.96
9538;BME280;4807;48.024;11.726;2023-04-05T15:14:31;95059.88;;;7.19;36.14
9538;BME280;4807;48.024;11.726;2023-04-05T15:17:39;95063.41;;;6.89;36.56
9538;BME280;4807;48.024;11.726;2023-04-05T15:20:49;95063.84;;;6.93;37.25
9538;BME280;4807;48.024;11.726;2023-04-05T15:23:57;95054.47;;;7.13;39.01
9538;BME280;4807;48.024;11.726;2023-04-05T15:27:08;95058.22;;;7.18;38.76
9538;BME280;4807;48.024;11.726;2023-04-05T15:30:17;95063.16;;;7.21;36.98
9538;BME280;4807;48.024;11.726;2023-04-05T15:33:26;95058.66;;;7.22;38.64
9538;BME280;4807;48.024;11.726;2023-04-05T15:36:36;95055.28;;;7.13;38.03
9538;BME280;4807;48.024;11.726;2023-04-05T15:39:44;95060.16;;;7.02;39.70
9538;BME280;4807;48.024;11.726;2023-04-05T15:42:54;95057.28;;;7.11;40.45
9538;BME280;4807;48.024;11.726;2023-04-05T15:46:02;95052.38;;;7.00;39.87
9538;BME280;4807;48.024;11.726;2023-04-05T15:49:11;95058.66;;;6.76;38.48
9538;BME280;4807;48.024;11.726;2023-04-05T15:52:23;95070.88;;;6.55;40.75
9538;BME280;4807;48.024;11.726;2023-04-05T15:55:32;95071.03;;;6.53;40.78
9538;BME280;4807;48.024;11.726;2023-04-05T15:58:40;95064.59;;;6.56;40.42
9538;BME280;4807;48.024;11.726;2023-04-05T16:01:49;95063.22;;;6.60;39.90
9538;BME280;4807;48.024;11.726;2023-04-05T16:04:57;95067.06;;;6.49;40.17
9538;BME280;4807;48.024;11.726;2023-04-05T16:08:07;95059.66;;;6.44;39.95
9538;BME280;4807;48.024;11.726;2023-04-05T16:11:20;95069.28;;;6.37;40.19
9538;BME280;4807;48.024;11.726;2023-04-05T16:14:28;95076.44;;;6.29;39.71
9538;BME280;4807;48.024;11.726;2023-04-05T16:17:37;95072.66;;;6.23;39.86
9538;BME280;4807;48.024;11.726;2023-04-05T16:20:46;95065.34;;;6.33;40.89
9538;BME280;4807;48.024;11.726;2023-04-05T16:23:56;95074.81;;;6.20;41.18
9538;BME280;4807;48.024;11.726;2023-04-05T16:27:07;95075.00;;;6.10;41.75
9538;BME280;4807;48.024;11.726;2023-04-05T16:30:15;95070.09;;;5.99;40.59
9538;BME280;4807;48.024;11.726;2023-04-05T16:33:24;95077.03;;;6.00;40.39
9538;BME280;4807;48.024;11.726;2023-04-05T16:36:32;95072.09;;;5.97;42.38
9538;BME280;4807;48.024;11.726;2023-04-05T16:39:42;95078.03;;;5.83;42.04
9538;BME280;4807;48.024;11.726;2023-04-05T16:42:51;95077.38;;;5.81;42.09
9538;BME280;4807;48.024;11.726;2023-04-05T16:46:00;95071.81;;;5.67;43.33
9538;BME280;4807;48.024;11.726;2023-04-05T16:49:09;95075.44;;;5.50;43.55
9538;BME280;4807;48.024;11.726;2023-04-05T16:52:17;95077.44;;;5.32;43.30
9538;BME280;4807;48.024;11.726;2023-04-05T16:55:28;95073.81;;;5.33;42.62
9538;BME280;4807;48.024;11.726;2023-04-05T16:58:37;95074.81;;;5.32;42.43
9538;BME280;4807;48.024;11.726;2023-04-05T17:01:45;95080.75;;;5.34;42.69
9538;BME280;4807;48.024;11.726;2023-04-05T17:04:54;95076.78;;;5.30;44.07
9538;BME280;4807;48.024;11.726;2023-04-05T17:08:02;95082.06;;;5.22;43.11
9538;BME280;4807;48.024;11.726;2023-04-05T17:11:12;95077.91;;;5.19;42.78
9538;BME280;4807;48.024;11.726;2023-04-05T17:14:21;95083.03;;;5.05;42.53
9538;BME280;4807;48.024;11.726;2023-04-05T17:17:29;95092.59;;;4.89;43.84